createdAt,value
2019-04-03T00:00:17.074Z,996.68
2019-04-03T00:01:17.070Z,996.68
2019-04-03T00:02:17.033Z,996.70
2019-04-03T00:03:17.046Z,996.71
2019-04-03T00:04:17.012Z,996.74
2019-04-03T00:05:17.001Z,996.72
2019-04-03T00:06:17.016Z,996.70
2019-04-03T00:07:16.982Z,996.76
2019-04-03T00:08:16.967Z,996.75
2019-04-03T00:09:16.955Z,996.72
2019-04-03T00:10:16.944Z,996.76
2019-04-03T00:11:16.944Z,996.76
2019-04-03T00:12:16.937Z,996.77
2019-04-03T00:13:16.925Z,996.76
2019-04-03T00:14:16.905Z,996.78
2019-04-03T00:15:16.891Z,996.81
2019-04-03T00:16:16.888Z,996.82
2019-04-03T00:17:16.909Z,996.87
2019-04-03T00:18:16.892Z,996.88
2019-04-03T00:19:17.727Z,996.96
2019-04-03T00:20:18.397Z,996.98
2019-04-03T00:21:17.693Z,997.02
2019-04-03T00:22:16.827Z,997.03
2019-04-03T00:23:16.817Z,996.99
2019-04-03T00:24:16.788Z,996.96
2019-04-03T00:25:16.790Z,996.92
2019-04-03T00:26:16.778Z,996.85
2019-04-03T00:27:16.904Z,996.79
2019-04-03T00:28:16.804Z,996.78
2019-04-03T00:29:16.747Z,996.72
2019-04-03T00:30:16.809Z,996.70
2019-04-03T00:31:16.721Z,996.69
2019-04-03T00:32:16.820Z,996.67
2019-04-03T00:33:16.726Z,996.70
2019-04-03T00:34:16.698Z,996.71
2019-04-03T00:35:16.675Z,996.81
2019-04-03T00:36:16.700Z,996.80
2019-04-03T00:37:16.675Z,996.81
2019-04-03T00:38:16.719Z,996.81
2019-04-03T00:39:16.630Z,996.82
2019-04-03T00:40:16.625Z,996.83
2019-04-03T00:41:16.799Z,996.81
2019-04-03T00:42:16.656Z,996.83
2019-04-03T00:43:16.581Z,996.84
2019-04-03T00:44:16.668Z,996.87
2019-04-03T00:45:16.572Z,996.90
2019-04-03T00:46:16.569Z,996.89
2019-04-03T00:47:16.543Z,996.90
2019-04-03T00:48:16.554Z,996.90
2019-04-03T00:49:16.527Z,996.89
2019-04-03T00:50:16.515Z,996.88
2019-04-03T00:51:16.496Z,996.88
2019-04-03T00:52:16.506Z,996.92
2019-04-03T00:53:16.492Z,996.85
2019-04-03T00:54:16.470Z,996.90
2019-04-03T00:55:16.453Z,996.95
2019-04-03T00:56:16.449Z,996.98
2019-04-03T00:57:16.447Z,996.94
2019-04-03T00:58:16.415Z,996.96
2019-04-03T00:59:16.480Z,996.89
2019-04-03T01:00:16.408Z,996.90
2019-04-03T01:01:16.423Z,996.92
2019-04-03T01:02:16.822Z,996.90
2019-04-03T01:03:16.365Z,996.93
2019-04-03T01:04:16.350Z,996.98
2019-04-03T01:05:16.362Z,996.95
2019-04-03T01:06:16.334Z,996.92
2019-04-03T01:07:16.318Z,996.94
2019-04-03T01:08:16.312Z,996.96
2019-04-03T01:09:16.299Z,996.93
2019-04-03T01:10:16.308Z,996.90
2019-04-03T01:11:16.271Z,996.90
2019-04-03T01:12:16.331Z,996.95
2019-04-03T01:13:16.300Z,996.94
2019-04-03T01:14:16.271Z,996.92
2019-04-03T01:15:16.232Z,996.91
2019-04-03T01:16:16.327Z,996.94
2019-04-03T01:17:16.207Z,996.92
2019-04-03T01:18:16.195Z,996.94
2019-04-03T01:19:16.190Z,996.99
2019-04-03T01:20:16.189Z,997.03
2019-04-03T01:21:16.429Z,997.03
2019-04-03T01:22:16.158Z,997.08
2019-04-03T01:23:16.161Z,997.13
2019-04-03T01:24:16.128Z,997.08
2019-04-03T01:25:16.118Z,997.15
2019-04-03T01:26:16.108Z,997.12
2019-04-03T01:27:16.134Z,997.16
2019-04-03T01:28:16.103Z,997.15
2019-04-03T01:29:16.069Z,997.14
2019-04-03T01:30:16.059Z,997.12
2019-04-03T01:31:16.055Z,997.15
2019-04-03T01:32:16.248Z,997.13
2019-04-03T01:33:16.434Z,997.13
2019-04-03T01:34:17.836Z,997.10
2019-04-03T01:35:17.446Z,997.09
2019-04-03T01:36:17.676Z,997.10
2019-04-03T01:37:16.809Z,997.09
2019-04-03T01:38:15.982Z,997.03
2019-04-03T01:39:15.968Z,997.00
2019-04-03T01:40:15.960Z,996.97
2019-04-03T01:41:15.999Z,996.98
2019-04-03T01:42:15.932Z,996.94
2019-04-03T01:43:15.932Z,996.94
2019-04-03T01:44:15.902Z,996.94
2019-04-03T01:45:15.917Z,996.94
2019-04-03T01:46:15.879Z,996.90
2019-04-03T01:47:15.889Z,996.89
2019-04-03T01:48:15.923Z,996.84
2019-04-03T01:49:15.889Z,996.84
2019-04-03T01:50:15.839Z,996.76
2019-04-03T01:51:15.825Z,996.75
2019-04-03T01:52:15.824Z,996.75
2019-04-03T01:53:15.826Z,996.73
2019-04-03T01:54:15.888Z,996.74
2019-04-03T01:55:15.798Z,996.75
2019-04-03T01:56:15.772Z,996.76
2019-04-03T01:57:15.772Z,996.69
2019-04-03T01:58:15.888Z,996.60
2019-04-03T01:59:15.737Z,996.63
2019-04-03T02:00:15.974Z,996.62
2019-04-03T02:01:15.754Z,996.59
2019-04-03T02:02:15.704Z,996.65
2019-04-03T02:03:15.687Z,996.64
2019-04-03T02:04:15.705Z,996.65
2019-04-03T02:05:15.668Z,996.69
2019-04-03T02:06:15.870Z,996.66
2019-04-03T02:07:15.644Z,996.65
2019-04-03T02:08:15.633Z,996.70
2019-04-03T02:09:16.339Z,996.69
2019-04-03T02:10:15.969Z,996.69
2019-04-03T02:11:18.082Z,996.70
2019-04-03T02:12:15.606Z,996.73
2019-04-03T02:13:15.591Z,996.69
2019-04-03T02:14:15.670Z,996.66
2019-04-03T02:15:15.557Z,996.63
2019-04-03T02:16:15.574Z,996.63
2019-04-03T02:17:15.545Z,996.66
2019-04-03T02:18:15.534Z,996.72
2019-04-03T02:19:15.517Z,996.71
2019-04-03T02:20:15.497Z,996.70
2019-04-03T02:21:15.498Z,996.67
2019-04-03T02:22:15.642Z,996.68
2019-04-03T02:23:15.475Z,996.66
2019-04-03T02:24:15.480Z,996.66
2019-04-03T02:25:15.470Z,996.63
2019-04-03T02:26:15.430Z,996.67
2019-04-03T02:27:15.591Z,996.60
2019-04-03T02:28:15.513Z,996.59
2019-04-03T02:29:15.408Z,996.62
2019-04-03T02:30:15.423Z,996.63
2019-04-03T02:31:18.234Z,996.61
2019-04-03T02:32:15.382Z,996.59
2019-04-03T02:33:15.354Z,996.59
2019-04-03T02:34:15.498Z,996.53
2019-04-03T02:35:15.347Z,996.54
2019-04-03T02:36:15.329Z,996.63
2019-04-03T02:37:16.992Z,996.64
2019-04-03T02:38:15.299Z,996.61
2019-04-03T02:39:15.304Z,996.64
2019-04-03T02:40:15.474Z,996.67
2019-04-03T02:41:15.662Z,996.63
2019-04-03T02:42:15.270Z,996.56
2019-04-03T02:43:15.559Z,996.47
2019-04-03T02:44:18.214Z,996.41
2019-04-03T02:45:15.424Z,996.34
2019-04-03T02:46:15.220Z,996.36
2019-04-03T02:47:15.311Z,996.35
2019-04-03T02:48:15.264Z,996.34
2019-04-03T02:49:15.181Z,996.38
2019-04-03T02:50:15.534Z,996.44
2019-04-03T02:51:17.018Z,996.43
2019-04-03T02:52:15.144Z,996.40
2019-04-03T02:53:15.160Z,996.35
2019-04-03T02:54:15.144Z,996.36
2019-04-03T02:55:15.110Z,996.38
2019-04-03T02:56:15.114Z,996.45
2019-04-03T02:57:17.734Z,996.47
2019-04-03T02:58:15.078Z,996.48
2019-04-03T02:59:15.103Z,996.49
2019-04-03T03:00:15.054Z,996.52
2019-04-03T03:01:15.042Z,996.49
2019-04-03T03:02:15.036Z,996.49
2019-04-03T03:03:17.274Z,996.51
2019-04-03T03:04:15.106Z,996.54
2019-04-03T03:05:15.027Z,996.53
2019-04-03T03:06:15.138Z,996.55
2019-04-03T03:07:14.978Z,996.52
2019-04-03T03:08:14.980Z,996.56
2019-04-03T03:09:15.193Z,996.54
2019-04-03T03:10:18.643Z,996.58
2019-04-03T03:11:14.934Z,996.60
2019-04-03T03:12:14.945Z,996.57
2019-04-03T03:13:14.940Z,996.54
2019-04-03T03:14:14.923Z,996.59
2019-04-03T03:15:14.919Z,996.54
2019-04-03T03:16:17.977Z,996.53
2019-04-03T03:17:14.880Z,996.58
2019-04-03T03:18:14.855Z,996.54
2019-04-03T03:19:14.843Z,996.60
2019-04-03T03:20:14.852Z,996.60
2019-04-03T03:21:14.852Z,996.60
2019-04-03T03:22:17.367Z,996.54
2019-04-03T03:23:14.815Z,996.56
2019-04-03T03:24:14.792Z,996.57
2019-04-03T03:25:14.796Z,996.54
2019-04-03T03:26:14.793Z,996.55
2019-04-03T03:27:14.776Z,996.57
2019-04-03T03:28:14.947Z,996.53
2019-04-03T03:29:18.606Z,996.50
2019-04-03T03:30:41.899Z,996.49
2019-04-03T03:31:16.066Z,996.44
2019-04-03T03:32:20.019Z,996.47
2019-04-03T03:33:32.717Z,996.45
2019-04-03T03:34:15.687Z,996.41
2019-04-03T03:35:18.557Z,996.42
2019-04-03T03:36:21.828Z,996.40
2019-04-03T03:37:15.745Z,996.44
2019-04-03T03:38:14.630Z,996.38
2019-04-03T03:39:14.838Z,996.33
2019-04-03T03:40:16.178Z,996.33
2019-04-03T03:41:14.631Z,996.32
2019-04-03T03:42:14.595Z,996.30
2019-04-03T03:43:14.598Z,996.26
2019-04-03T03:44:14.647Z,996.27
2019-04-03T03:45:18.382Z,996.28
2019-04-03T03:46:15.578Z,996.21
2019-04-03T03:47:14.722Z,996.20
2019-04-03T03:48:14.523Z,996.19
2019-04-03T03:49:17.495Z,996.19
2019-04-03T03:50:14.519Z,996.13
2019-04-03T03:51:14.492Z,996.14
2019-04-03T03:52:14.483Z,996.14
2019-04-03T03:53:14.508Z,996.13
2019-04-03T03:54:16.911Z,996.13
2019-04-03T03:55:14.772Z,996.12
2019-04-03T03:56:14.436Z,996.10
2019-04-03T03:57:14.445Z,996.14
2019-04-03T03:58:14.430Z,996.13
2019-04-03T03:59:17.535Z,996.10
2019-04-03T04:00:14.519Z,996.11
2019-04-03T04:01:14.394Z,996.11
2019-04-03T04:02:14.378Z,996.11
2019-04-03T04:03:14.352Z,996.07
2019-04-03T04:04:15.599Z,996.01
2019-04-03T04:05:14.348Z,996.04
2019-04-03T04:06:14.787Z,996.04
2019-04-03T04:07:14.310Z,996.03
2019-04-03T04:08:14.308Z,996.03
2019-04-03T04:09:17.117Z,996.02
2019-04-03T04:10:14.346Z,996.01
2019-04-03T04:11:14.297Z,996.04
2019-04-03T04:12:14.276Z,996.03
2019-04-03T04:13:15.789Z,995.98
2019-04-03T04:14:14.245Z,995.95
2019-04-03T04:15:14.473Z,995.95
2019-04-03T04:16:14.224Z,995.93
2019-04-03T04:17:16.879Z,995.93
2019-04-03T04:18:15.300Z,995.97
2019-04-03T04:19:14.185Z,995.93
2019-04-03T04:20:14.181Z,995.92
2019-04-03T04:21:14.386Z,995.92
2019-04-03T04:22:16.323Z,995.96
2019-04-03T04:23:14.189Z,995.98
2019-04-03T04:24:14.321Z,995.94
2019-04-03T04:25:14.189Z,995.95
2019-04-03T04:26:14.103Z,995.97
2019-04-03T04:27:14.096Z,996.00
2019-04-03T04:28:14.079Z,996.00
2019-04-03T04:29:14.067Z,995.98
2019-04-03T04:30:14.177Z,995.94
2019-04-03T04:31:14.054Z,995.96
2019-04-03T04:32:15.003Z,995.94
2019-04-03T04:33:16.434Z,995.92
2019-04-03T04:34:14.016Z,995.98
2019-04-03T04:35:14.019Z,995.96
2019-04-03T04:36:13.980Z,995.98
2019-04-03T04:37:13.987Z,995.94
2019-04-03T04:38:14.117Z,995.93
2019-04-03T04:39:13.949Z,995.92
2019-04-03T04:40:13.955Z,995.94
2019-04-03T04:41:13.929Z,995.97
2019-04-03T04:42:13.916Z,995.98
2019-04-03T04:43:14.345Z,995.95
2019-04-03T04:44:15.066Z,995.96
2019-04-03T04:45:13.898Z,995.95
2019-04-03T04:46:14.050Z,995.93
2019-04-03T04:47:15.050Z,995.97
2019-04-03T04:48:16.161Z,995.94
2019-04-03T04:49:13.926Z,996.00
2019-04-03T04:50:13.828Z,995.97
2019-04-03T04:51:13.858Z,995.96
2019-04-03T04:52:13.805Z,995.98
2019-04-03T04:53:13.817Z,995.97
2019-04-03T04:54:13.815Z,995.99
2019-04-03T04:55:13.839Z,995.97
2019-04-03T04:56:13.774Z,996.03
2019-04-03T04:57:13.771Z,995.98
2019-04-03T04:58:13.827Z,995.99
2019-04-03T04:59:14.244Z,995.98
2019-04-03T05:00:15.489Z,996.01
2019-04-03T05:01:13.710Z,996.04
2019-04-03T05:02:13.702Z,996.03
2019-04-03T05:03:13.709Z,996.00
2019-04-03T05:04:15.852Z,995.98
2019-04-03T05:05:13.676Z,995.95
2019-04-03T05:06:13.661Z,995.98
2019-04-03T05:07:16.395Z,995.96
2019-04-03T05:08:13.635Z,995.99
2019-04-03T05:09:13.624Z,995.96
2019-04-03T05:10:13.613Z,996.00
2019-04-03T05:11:13.742Z,996.00
2019-04-03T05:12:13.596Z,995.99
2019-04-03T05:13:15.266Z,995.97
2019-04-03T05:14:13.608Z,996.02
2019-04-03T05:15:13.553Z,995.99
2019-04-03T05:16:13.558Z,996.02
2019-04-03T05:17:13.549Z,996.03
2019-04-03T05:18:13.739Z,996.06
2019-04-03T05:19:18.432Z,996.02
2019-04-03T05:20:14.493Z,996.11
2019-04-03T05:21:13.495Z,996.06
2019-04-03T05:22:13.721Z,996.06
2019-04-03T05:23:13.459Z,996.06
2019-04-03T05:24:13.777Z,996.09
2019-04-03T05:25:13.496Z,996.09
2019-04-03T05:26:13.437Z,996.09
2019-04-03T05:27:13.410Z,996.05
2019-04-03T05:28:13.402Z,996.13
2019-04-03T05:29:13.389Z,996.09
2019-04-03T05:30:13.569Z,996.06
2019-04-03T05:31:13.378Z,996.07
2019-04-03T05:32:13.364Z,996.08
2019-04-03T05:33:13.423Z,996.04
2019-04-03T05:34:13.796Z,996.09
2019-04-03T05:35:14.960Z,996.07
2019-04-03T05:36:13.403Z,996.08
2019-04-03T05:37:13.344Z,996.09
2019-04-03T05:38:13.415Z,996.10
2019-04-03T05:39:13.283Z,996.11
2019-04-03T05:40:13.460Z,996.09
2019-04-03T05:41:13.284Z,996.08
2019-04-03T05:42:13.374Z,996.11
2019-04-03T05:43:13.242Z,996.06
2019-04-03T05:44:13.272Z,996.11
2019-04-03T05:45:13.297Z,996.14
2019-04-03T05:46:13.212Z,996.16
2019-04-03T05:47:13.209Z,996.15
2019-04-03T05:48:17.252Z,996.13
2019-04-03T05:49:13.260Z,996.14
2019-04-03T05:50:13.156Z,996.15
2019-04-03T05:51:13.150Z,996.15
2019-04-03T05:52:13.157Z,996.11
2019-04-03T05:53:13.382Z,996.16
2019-04-03T05:54:14.399Z,996.19
2019-04-03T05:55:13.107Z,996.23
2019-04-03T05:56:13.099Z,996.24
2019-04-03T05:57:14.073Z,996.31
2019-04-03T05:58:15.582Z,996.31
2019-04-03T05:59:13.066Z,996.32
2019-04-03T06:00:13.049Z,996.31
2019-04-03T06:01:13.414Z,996.32
2019-04-03T06:02:16.259Z,996.32
2019-04-03T06:03:13.015Z,996.28
2019-04-03T06:04:13.002Z,996.28
2019-04-03T06:05:13.281Z,996.32
2019-04-03T06:06:14.490Z,996.33
2019-04-03T06:07:13.523Z,996.30
2019-04-03T06:08:12.975Z,996.30
2019-04-03T06:09:12.942Z,996.32
2019-04-03T06:10:12.951Z,996.33
2019-04-03T06:11:12.921Z,996.32
2019-04-03T06:12:14.448Z,996.29
2019-04-03T06:13:12.914Z,996.29
2019-04-03T06:14:12.893Z,996.30
2019-04-03T06:15:12.994Z,996.30
2019-04-03T06:16:12.873Z,996.31
2019-04-03T06:17:12.895Z,996.30
2019-04-03T06:18:12.908Z,996.33
2019-04-03T06:19:12.831Z,996.28
2019-04-03T06:20:13.021Z,996.31
2019-04-03T06:21:14.500Z,996.36
2019-04-03T06:22:12.801Z,996.36
2019-04-03T06:23:12.796Z,996.35
2019-04-03T06:24:12.791Z,996.34
2019-04-03T06:25:13.899Z,996.33
2019-04-03T06:26:12.774Z,996.34
2019-04-03T06:27:12.756Z,996.34
2019-04-03T06:28:13.714Z,996.32
2019-04-03T06:29:12.821Z,996.36
2019-04-03T06:30:12.945Z,996.30
2019-04-03T06:31:12.702Z,996.35
2019-04-03T06:32:12.733Z,996.37
2019-04-03T06:33:12.756Z,996.32
2019-04-03T06:34:12.983Z,996.35
2019-04-03T06:35:13.841Z,996.38
2019-04-03T06:36:12.895Z,996.43
2019-04-03T06:37:12.670Z,996.39
2019-04-03T06:38:12.624Z,996.36
2019-04-03T06:39:12.605Z,996.35
2019-04-03T06:40:12.595Z,996.39
2019-04-03T06:41:12.797Z,996.36
2019-04-03T06:42:13.374Z,996.36
2019-04-03T06:43:12.642Z,996.32
2019-04-03T06:44:12.568Z,996.34
2019-04-03T06:45:15.421Z,996.33
2019-04-03T06:46:12.679Z,996.28
2019-04-03T06:47:12.520Z,996.26
2019-04-03T06:48:12.770Z,996.31
2019-04-03T06:49:12.553Z,996.28
2019-04-03T06:50:13.394Z,996.27
2019-04-03T06:51:12.604Z,996.29
2019-04-03T06:52:12.467Z,996.26
2019-04-03T06:53:12.456Z,996.28
2019-04-03T06:54:12.473Z,996.25
2019-04-03T06:55:12.737Z,996.29
2019-04-03T06:56:12.492Z,996.25
2019-04-03T06:57:13.875Z,996.29
2019-04-03T06:58:12.736Z,996.28
2019-04-03T06:59:12.612Z,996.29
2019-04-03T07:00:12.385Z,996.30
2019-04-03T07:01:12.368Z,996.26
2019-04-03T07:02:12.368Z,996.25
2019-04-03T07:03:12.356Z,996.23
2019-04-03T07:04:12.433Z,996.25
2019-04-03T07:05:12.318Z,996.27
2019-04-03T07:06:13.118Z,996.23
2019-04-03T07:07:12.359Z,996.26
2019-04-03T07:08:12.316Z,996.26
2019-04-03T07:09:22.634Z,996.26
2019-04-03T07:10:24.469Z,996.26
2019-04-03T07:11:22.809Z,996.21
2019-04-03T07:12:15.714Z,996.19
2019-04-03T07:13:15.051Z,996.14
2019-04-03T07:14:12.454Z,996.07
2019-04-03T07:15:12.213Z,996.05
2019-04-03T07:16:12.211Z,996.03
2019-04-03T07:17:12.197Z,995.97
2019-04-03T07:18:12.189Z,995.94
2019-04-03T07:19:12.232Z,995.91
2019-04-03T07:20:15.402Z,995.90
2019-04-03T07:21:13.146Z,995.89
2019-04-03T07:22:12.145Z,995.91
2019-04-03T07:23:12.127Z,995.93
2019-04-03T07:24:12.214Z,996.02
2019-04-03T07:25:12.097Z,996.11
2019-04-03T07:26:12.078Z,996.10
2019-04-03T07:27:14.528Z,996.09
2019-04-03T07:28:12.084Z,996.15
2019-04-03T07:29:13.966Z,996.17
2019-04-03T07:30:12.048Z,996.26
2019-04-03T07:31:12.043Z,996.21
2019-04-03T07:32:12.024Z,996.21
2019-04-03T07:33:12.016Z,996.23
2019-04-03T07:34:11.990Z,996.24
2019-04-03T07:35:12.047Z,996.25
2019-04-03T07:36:12.282Z,996.23
2019-04-03T07:37:15.180Z,996.24
2019-04-03T07:38:11.964Z,996.21
2019-04-03T07:39:11.950Z,996.18
2019-04-03T07:40:11.925Z,996.18
2019-04-03T07:41:12.000Z,996.12
2019-04-03T07:42:11.916Z,996.09
2019-04-03T07:43:12.000Z,996.09
2019-04-03T07:44:12.135Z,996.06
2019-04-03T07:45:11.870Z,996.05
2019-04-03T07:46:11.872Z,996.03
2019-04-03T07:47:11.968Z,996.00
2019-04-03T07:48:11.949Z,995.99
2019-04-03T07:49:13.890Z,995.98
2019-04-03T07:50:12.160Z,995.87
2019-04-03T07:51:12.868Z,995.86
2019-04-03T07:52:13.325Z,995.80
2019-04-03T07:53:11.805Z,995.84
2019-04-03T07:54:11.769Z,995.85
2019-04-03T07:55:11.761Z,995.87
2019-04-03T07:56:11.772Z,995.92
2019-04-03T07:57:11.819Z,995.97
2019-04-03T07:58:11.729Z,995.98
2019-04-03T07:59:11.790Z,995.95
2019-04-03T08:00:11.709Z,995.99
2019-04-03T08:01:11.700Z,995.95
2019-04-03T08:02:12.832Z,996.00
2019-04-03T08:03:12.042Z,995.99
2019-04-03T08:04:11.701Z,996.00
2019-04-03T08:05:11.892Z,996.03
2019-04-03T08:06:11.630Z,996.05
2019-04-03T08:07:11.620Z,996.03
2019-04-03T08:08:11.822Z,996.05
2019-04-03T08:09:11.618Z,996.07
2019-04-03T08:10:11.601Z,996.13
2019-04-03T08:11:14.612Z,996.18
2019-04-03T08:12:11.573Z,996.24
2019-04-03T08:13:11.559Z,996.27
2019-04-03T08:14:11.574Z,996.34
2019-04-03T08:15:13.503Z,996.39
2019-04-03T08:16:11.524Z,996.40
2019-04-03T08:17:11.533Z,996.36
2019-04-03T08:18:11.740Z,996.32
2019-04-03T08:19:11.527Z,996.32
2019-04-03T08:20:11.498Z,996.29
2019-04-03T08:21:11.468Z,996.30
2019-04-03T08:22:11.561Z,996.32
2019-04-03T08:23:11.456Z,996.34
2019-04-03T08:24:11.869Z,996.33
2019-04-03T08:25:12.530Z,996.29
2019-04-03T08:26:12.242Z,996.27
2019-04-03T08:27:11.411Z,996.18
2019-04-03T08:28:11.397Z,996.15
2019-04-03T08:29:11.398Z,996.09
2019-04-03T08:30:11.391Z,996.11
2019-04-03T08:31:12.023Z,996.05
2019-04-03T08:32:11.599Z,996.08
2019-04-03T08:33:17.206Z,996.10
2019-04-03T08:34:16.684Z,996.07
2019-04-03T08:35:21.171Z,996.10
2019-04-03T08:36:23.288Z,996.15
2019-04-03T08:37:12.309Z,996.15
2019-04-03T08:38:13.420Z,996.17
2019-04-03T08:39:11.586Z,996.15
2019-04-03T08:40:11.259Z,996.16
2019-04-03T08:41:11.327Z,996.11
2019-04-03T08:42:11.507Z,996.12
2019-04-03T08:43:11.234Z,996.12
2019-04-03T08:44:11.225Z,996.11
2019-04-03T08:45:11.525Z,996.15
2019-04-03T08:46:11.196Z,996.22
2019-04-03T08:47:13.712Z,996.22
2019-04-03T08:48:11.176Z,996.22
2019-04-03T08:49:11.156Z,996.22
2019-04-03T08:50:11.148Z,996.25
2019-04-03T08:51:11.146Z,996.24
2019-04-03T08:52:13.890Z,996.26
2019-04-03T08:53:11.124Z,996.24
2019-04-03T08:54:11.400Z,996.28
2019-04-03T08:55:14.121Z,996.26
2019-04-03T08:56:11.121Z,996.23
2019-04-03T08:57:11.074Z,996.27
2019-04-03T08:58:11.137Z,996.30
2019-04-03T08:59:12.908Z,996.23
2019-04-03T09:00:11.049Z,996.27
2019-04-03T09:01:11.218Z,996.27
2019-04-03T09:02:12.883Z,996.28
2019-04-03T09:03:12.255Z,996.34
2019-04-03T09:04:11.009Z,996.37
2019-04-03T09:05:13.746Z,996.36
2019-04-03T09:06:11.314Z,996.37
2019-04-03T09:07:11.072Z,996.37
2019-04-03T09:08:10.955Z,996.37
2019-04-03T09:09:10.933Z,996.36
2019-04-03T09:10:11.108Z,996.36
2019-04-03T09:11:10.936Z,996.32
2019-04-03T09:12:10.896Z,996.33
2019-04-03T09:13:17.632Z,996.30
2019-04-03T09:14:11.876Z,996.34
2019-04-03T09:15:11.282Z,996.35
2019-04-03T09:16:11.051Z,996.35
2019-04-03T09:17:11.060Z,996.33
2019-04-03T09:18:10.846Z,996.35
2019-04-03T09:19:10.899Z,996.36
2019-04-03T09:20:13.504Z,996.37
2019-04-03T09:21:10.803Z,996.37
2019-04-03T09:22:10.786Z,996.35
2019-04-03T09:23:10.788Z,996.35
2019-04-03T09:24:10.765Z,996.33
2019-04-03T09:25:13.238Z,996.40
2019-04-03T09:26:10.746Z,996.45
2019-04-03T09:27:10.727Z,996.50
2019-04-03T09:28:11.122Z,996.51
2019-04-03T09:29:12.643Z,996.49
2019-04-03T09:30:10.713Z,996.46
2019-04-03T09:31:10.692Z,996.44
2019-04-03T09:32:10.720Z,996.48
2019-04-03T09:33:10.678Z,996.43
2019-04-03T09:34:10.657Z,996.42
2019-04-03T09:35:10.646Z,996.34
2019-04-03T09:36:10.635Z,996.26
2019-04-03T09:37:10.750Z,996.20
2019-04-03T09:38:10.979Z,996.14
2019-04-03T09:39:12.929Z,996.14
2019-04-03T09:40:10.593Z,996.26
2019-04-03T09:41:10.943Z,996.28
2019-04-03T09:42:10.579Z,996.31
2019-04-03T09:43:10.555Z,996.27
2019-04-03T09:44:10.624Z,996.18
2019-04-03T09:45:10.529Z,996.14
2019-04-03T09:46:10.533Z,996.11
2019-04-03T09:47:10.681Z,996.09
2019-04-03T09:48:12.314Z,996.00
2019-04-03T09:49:10.483Z,996.05
2019-04-03T09:50:13.455Z,996.05
2019-04-03T09:51:10.658Z,996.07
2019-04-03T09:52:10.797Z,996.08
2019-04-03T09:53:10.457Z,996.11
2019-04-03T09:54:10.428Z,996.07
2019-04-03T09:55:10.427Z,996.05
2019-04-03T09:56:10.410Z,996.05
2019-04-03T09:57:10.415Z,995.98
2019-04-03T09:58:10.378Z,995.93
2019-04-03T09:59:10.462Z,995.94
2019-04-03T10:00:11.207Z,996.00
2019-04-03T10:01:13.280Z,996.01
2019-04-03T10:02:11.368Z,996.02
2019-04-03T10:03:10.761Z,996.03
2019-04-03T10:04:10.312Z,995.99
2019-04-03T10:05:10.510Z,995.97
2019-04-03T10:06:10.334Z,995.89
2019-04-03T10:07:10.525Z,995.87
2019-04-03T10:08:10.348Z,995.86
2019-04-03T10:09:12.028Z,995.89
2019-04-03T10:10:10.405Z,995.83
2019-04-03T10:11:10.461Z,995.83
2019-04-03T10:12:10.379Z,995.86
2019-04-03T10:13:10.212Z,995.90
2019-04-03T10:14:10.540Z,995.87
2019-04-03T10:15:10.198Z,995.88
2019-04-03T10:16:10.337Z,995.90
2019-04-03T10:17:10.500Z,995.91
2019-04-03T10:18:10.225Z,995.92
2019-04-03T10:19:10.947Z,995.94
2019-04-03T10:20:10.151Z,995.94
2019-04-03T10:21:10.157Z,995.97
2019-04-03T10:22:10.112Z,995.95
2019-04-03T10:23:10.124Z,995.93
2019-04-03T10:24:10.121Z,995.93
2019-04-03T10:25:10.405Z,995.86
2019-04-03T10:26:10.095Z,995.86
2019-04-03T10:27:11.207Z,995.80
2019-04-03T10:28:10.226Z,995.78
2019-04-03T10:29:10.377Z,995.79
2019-04-03T10:30:10.026Z,995.79
2019-04-03T10:31:10.016Z,995.79
2019-04-03T10:32:10.191Z,995.78
2019-04-03T10:33:10.023Z,995.79
2019-04-03T10:34:09.996Z,995.83
2019-04-03T10:35:09.984Z,995.83
2019-04-03T10:36:11.440Z,995.83
2019-04-03T10:37:10.274Z,995.88
2019-04-03T10:38:09.945Z,995.85
2019-04-03T10:39:10.132Z,995.86
2019-04-03T10:40:10.220Z,995.84
2019-04-03T10:41:11.153Z,995.84
2019-04-03T10:42:10.186Z,995.85
2019-04-03T10:43:09.888Z,995.87
2019-04-03T10:44:10.364Z,995.84
2019-04-03T10:45:09.869Z,995.84
2019-04-03T10:46:09.924Z,995.78
2019-04-03T10:47:10.049Z,995.76
2019-04-03T10:48:09.833Z,995.71
2019-04-03T10:49:09.836Z,995.67
2019-04-03T10:50:09.804Z,995.67
2019-04-03T10:51:10.103Z,995.66
2019-04-03T10:52:12.637Z,995.68
2019-04-03T10:53:10.024Z,995.69
2019-04-03T10:54:09.830Z,995.61
2019-04-03T10:55:09.758Z,995.63
2019-04-03T10:56:10.031Z,995.59
2019-04-03T10:57:09.762Z,995.55
2019-04-03T10:58:09.911Z,995.57
2019-04-03T10:59:13.127Z,995.51
2019-04-03T11:00:10.130Z,995.50
2019-04-03T11:01:10.016Z,995.46
2019-04-03T11:02:09.683Z,995.39
2019-04-03T11:03:09.775Z,995.39
2019-04-03T11:04:09.905Z,995.42
2019-04-03T11:05:09.654Z,995.43
2019-04-03T11:06:09.645Z,995.46
2019-04-03T11:07:10.098Z,995.47
2019-04-03T11:08:09.616Z,995.49
2019-04-03T11:09:10.222Z,995.41
2019-04-03T11:10:09.917Z,995.41
2019-04-03T11:11:09.589Z,995.37
2019-04-03T11:12:10.630Z,995.42
2019-04-03T11:13:09.554Z,995.39
2019-04-03T11:14:09.601Z,995.43
2019-04-03T11:15:11.757Z,995.42
2019-04-03T11:16:09.516Z,995.45
2019-04-03T11:17:09.511Z,995.46
2019-04-03T11:18:09.514Z,995.49
2019-04-03T11:19:09.495Z,995.49
2019-04-03T11:20:10.796Z,995.57
2019-04-03T11:21:12.173Z,995.55
2019-04-03T11:22:09.519Z,995.52
2019-04-03T11:23:09.662Z,995.55
2019-04-03T11:24:09.430Z,995.51
2019-04-03T11:25:09.648Z,995.53
2019-04-03T11:26:09.430Z,995.49
2019-04-03T11:27:09.391Z,995.46
2019-04-03T11:28:09.410Z,995.44
2019-04-03T11:29:10.427Z,995.41
2019-04-03T11:30:11.658Z,995.44
2019-04-03T11:31:09.362Z,995.43
2019-04-03T11:32:09.992Z,995.39
2019-04-03T11:33:09.355Z,995.37
2019-04-03T11:34:09.390Z,995.35
2019-04-03T11:35:09.458Z,995.36
2019-04-03T11:36:09.675Z,995.28
2019-04-03T11:37:09.573Z,995.23
2019-04-03T11:38:14.047Z,995.24
2019-04-03T11:39:14.924Z,995.27
2019-04-03T11:40:10.572Z,995.24
2019-04-03T11:41:14.510Z,995.22
2019-04-03T11:42:22.477Z,995.18
2019-04-03T11:43:10.236Z,995.21
2019-04-03T11:44:09.500Z,995.17
2019-04-03T11:45:09.200Z,995.16
2019-04-03T11:46:09.450Z,995.15
2019-04-03T11:47:10.689Z,995.11
2019-04-03T11:48:09.164Z,995.11
2019-04-03T11:49:09.157Z,995.13
2019-04-03T11:50:09.150Z,995.10
2019-04-03T11:51:09.143Z,994.99
2019-04-03T11:52:09.444Z,994.97
2019-04-03T11:53:09.358Z,994.94
2019-04-03T11:54:09.195Z,994.93
2019-04-03T11:55:10.875Z,994.87
2019-04-03T11:56:09.081Z,994.89
2019-04-03T11:57:09.712Z,994.86
2019-04-03T11:58:09.069Z,994.97
2019-04-03T11:59:09.037Z,995.03
2019-04-03T12:00:09.046Z,995.07
2019-04-03T12:01:09.011Z,995.12
2019-04-03T12:02:09.007Z,995.12
2019-04-03T12:03:10.793Z,995.13
2019-04-03T12:04:12.051Z,995.12
2019-04-03T12:05:08.988Z,995.10
2019-04-03T12:06:08.976Z,995.08
2019-04-03T12:07:08.957Z,995.06
2019-04-03T12:08:11.906Z,995.12
2019-04-03T12:09:08.974Z,995.12
2019-04-03T12:10:08.917Z,995.17
2019-04-03T12:11:08.902Z,995.19
2019-04-03T12:12:10.216Z,995.27
2019-04-03T12:13:09.089Z,995.29
2019-04-03T12:14:08.880Z,995.28
2019-04-03T12:15:08.885Z,995.30
2019-04-03T12:16:08.860Z,995.35
2019-04-03T12:17:08.937Z,995.33
2019-04-03T12:18:08.851Z,995.34
2019-04-03T12:19:09.167Z,995.33
2019-04-03T12:20:09.427Z,995.35
2019-04-03T12:21:11.697Z,995.32
2019-04-03T12:22:08.923Z,995.29
2019-04-03T12:23:08.777Z,995.26
2019-04-03T12:24:08.777Z,995.25
2019-04-03T12:25:08.763Z,995.16
2019-04-03T12:26:09.060Z,995.19
2019-04-03T12:27:09.066Z,995.14
2019-04-03T12:28:08.777Z,995.15